createdAt,value
2017-10-25T11:10:57.413Z,1014.12
2017-10-25T11:11:57.260Z,1014.15
2017-10-25T11:13:50.797Z,1014.17
2017-10-25T11:14:50.639Z,1014.15
2017-10-25T11:15:50.633Z,1014.16
2017-10-25T11:16:50.641Z,1014.18
2017-10-25T11:17:50.649Z,1014.16
2017-10-25T11:18:50.666Z,1014.18
2017-10-25T11:19:50.678Z,1014.18
2017-10-25T11:20:50.679Z,1014.19
2017-10-25T11:21:50.686Z,1014.19
2017-10-25T11:22:50.693Z,1014.25
2017-10-25T11:23:50.723Z,1014.24
2017-10-25T11:24:50.718Z,1014.26
2017-10-25T11:25:50.726Z,1014.24
2017-10-25T11:26:50.730Z,1014.21
2017-10-25T11:27:50.740Z,1014.20
2017-10-25T11:28:50.755Z,1014.16
2017-10-25T11:29:50.759Z,1014.12
2017-10-25T11:30:50.765Z,1014.17
2017-10-25T11:31:50.821Z,1014.17
2017-10-25T11:32:50.792Z,1014.18
2017-10-25T11:33:50.875Z,1014.15
2017-10-25T11:34:50.806Z,1014.25
2017-10-25T11:35:50.889Z,1014.23
2017-10-25T11:36:50.824Z,1014.22
2017-10-25T11:37:50.902Z,1014.26
2017-10-25T11:38:50.847Z,1014.27
2017-10-25T11:39:50.917Z,1014.23
2017-10-25T11:40:50.868Z,1014.29
2017-10-25T11:41:50.930Z,1014.24
2017-10-25T11:42:50.883Z,1014.26
2017-10-25T11:43:50.945Z,1014.32
2017-10-25T11:44:50.903Z,1014.23
2017-10-25T11:45:50.956Z,1014.18
2017-10-25T11:46:50.917Z,1014.25
2017-10-25T11:47:50.968Z,1014.31
2017-10-25T11:48:50.933Z,1014.27
2017-10-25T11:49:50.988Z,1014.22
2017-10-25T11:50:50.960Z,1014.23
2017-10-25T11:51:50.994Z,1014.23
2017-10-25T11:52:50.971Z,1014.17
2017-10-25T11:53:51.009Z,1014.16
2017-10-25T11:54:50.987Z,1014.11
2017-10-25T11:55:51.020Z,1014.15
2017-10-25T11:56:51.019Z,1014.17
2017-10-25T11:57:51.033Z,1014.20
2017-10-25T11:58:51.019Z,1014.26
2017-10-25T11:59:51.048Z,1014.21
2017-10-25T12:00:51.045Z,1014.24
2017-10-25T12:01:51.057Z,1014.25
2017-10-25T12:02:51.172Z,1014.27
2017-10-25T12:03:51.074Z,1014.28
2017-10-25T12:04:51.184Z,1014.25
2017-10-25T12:05:51.089Z,1014.24
2017-10-25T12:06:51.857Z,1014.30
2017-10-25T12:07:51.104Z,1014.25
2017-10-25T12:08:51.214Z,1014.26
2017-10-25T12:09:51.125Z,1014.32
2017-10-25T12:10:51.226Z,1014.25
2017-10-25T12:11:51.155Z,1014.23
2017-10-25T12:12:51.238Z,1014.24
2017-10-25T12:13:51.166Z,1014.30
2017-10-25T12:14:51.252Z,1014.38
2017-10-25T12:15:51.190Z,1014.28
2017-10-25T12:16:51.265Z,1014.38
2017-10-25T12:17:51.199Z,1014.29
2017-10-25T12:18:51.281Z,1014.33
2017-10-25T12:19:51.227Z,1014.29
2017-10-25T12:20:51.295Z,1014.30
2017-10-25T12:21:51.236Z,1014.35
2017-10-25T12:22:51.319Z,1014.32
2017-10-25T12:23:51.252Z,1014.37
2017-10-25T12:24:51.320Z,1014.36
2017-10-25T12:25:51.271Z,1014.34
2017-10-25T12:26:51.335Z,1014.36
2017-10-25T12:27:51.289Z,1014.35
2017-10-25T12:28:51.350Z,1014.38
2017-10-25T12:29:51.307Z,1014.28
2017-10-25T12:30:51.360Z,1014.29
2017-10-25T12:31:51.323Z,1014.33
2017-10-25T12:32:51.376Z,1014.38
2017-10-25T12:33:51.340Z,1014.35
2017-10-25T12:34:51.390Z,1014.33
2017-10-25T12:35:51.360Z,1014.36
2017-10-25T12:36:51.406Z,1014.37
2017-10-25T12:37:51.381Z,1014.45
2017-10-25T12:38:51.420Z,1014.44
2017-10-25T12:39:51.403Z,1014.36
2017-10-25T12:40:51.425Z,1014.42
2017-10-25T12:41:51.418Z,1014.37
2017-10-25T12:42:51.442Z,1014.35
2017-10-25T12:43:51.436Z,1014.38
2017-10-25T12:44:51.459Z,1014.30
2017-10-25T12:45:51.456Z,1014.36
2017-10-25T12:46:51.576Z,1014.32
2017-10-25T12:47:51.475Z,1014.32
2017-10-25T12:48:51.584Z,1014.35
2017-10-25T12:49:51.494Z,1014.41
2017-10-25T12:50:51.603Z,1014.35
2017-10-25T12:51:51.506Z,1014.40
2017-10-25T12:52:51.612Z,1014.42
2017-10-25T12:53:51.524Z,1014.44
2017-10-25T12:54:51.530Z,1014.43
2017-10-25T12:55:51.640Z,1014.50
2017-10-25T12:56:51.557Z,1014.48
2017-10-25T12:57:51.650Z,1014.52
2017-10-25T12:58:51.569Z,1014.54
2017-10-25T12:59:51.662Z,1014.54
2017-10-25T13:00:51.590Z,1014.59
2017-10-25T13:01:51.679Z,1014.57
2017-10-25T13:02:51.602Z,1014.54
2017-10-25T13:03:51.689Z,1014.55
2017-10-25T13:04:51.624Z,1014.58
2017-10-25T13:05:51.697Z,1014.60
2017-10-25T13:06:51.649Z,1014.55
2017-10-25T13:07:51.718Z,1014.58
2017-10-25T13:08:51.662Z,1014.56
2017-10-25T13:09:51.728Z,1014.71
2017-10-25T13:10:51.682Z,1014.67
2017-10-25T13:11:51.749Z,1014.74
2017-10-25T13:12:51.698Z,1014.65
2017-10-25T13:13:52.802Z,1014.77
2017-10-25T13:14:51.724Z,1014.75
2017-10-25T13:15:51.770Z,1014.75
2017-10-25T13:16:51.729Z,1014.72
2017-10-25T13:17:51.791Z,1014.81
2017-10-25T13:18:51.755Z,1014.82
2017-10-25T13:19:51.800Z,1014.82
2017-10-25T13:20:51.773Z,1014.87
2017-10-25T13:21:51.831Z,1014.94
2017-10-25T13:22:51.793Z,1014.88
2017-10-25T13:23:51.826Z,1014.88
2017-10-25T13:24:51.812Z,1014.92
2017-10-25T13:25:51.835Z,1014.93
2017-10-25T13:26:51.826Z,1014.88
2017-10-25T13:27:51.853Z,1014.94
2017-10-25T13:28:51.848Z,1014.94
2017-10-25T13:29:51.970Z,1014.92
2017-10-25T13:30:51.861Z,1014.96
2017-10-25T13:31:51.981Z,1015.01
2017-10-25T13:32:51.889Z,1015.02
2017-10-25T13:33:51.996Z,1015.08
2017-10-25T13:34:51.902Z,1015.07
2017-10-25T13:35:51.908Z,1015.03
2017-10-25T13:36:52.016Z,1014.98
2017-10-25T13:37:51.926Z,1014.95
2017-10-25T13:38:52.030Z,1014.87
2017-10-25T13:39:51.950Z,1014.91
2017-10-25T13:40:52.046Z,1014.90
2017-10-25T13:41:51.965Z,1014.97
2017-10-25T13:42:51.976Z,1014.96
2017-10-25T13:43:51.982Z,1014.95
2017-10-25T13:44:52.068Z,1014.92
2017-10-25T13:45:52.002Z,1014.90
2017-10-25T13:46:52.086Z,1014.88
2017-10-25T13:47:52.020Z,1014.91
2017-10-25T13:48:52.111Z,1014.96
2017-10-25T13:49:52.034Z,1014.93
2017-10-25T13:50:52.109Z,1014.96
2017-10-25T13:51:52.059Z,1014.95
2017-10-25T13:52:52.119Z,1014.94
2017-10-25T13:53:52.086Z,1014.96
2017-10-25T13:54:52.137Z,1014.98
2017-10-25T13:55:52.096Z,1014.96
2017-10-25T13:56:52.150Z,1015.00
2017-10-25T13:57:52.110Z,1014.98
2017-10-25T13:58:52.172Z,1014.98
2017-10-25T13:59:52.128Z,1014.95
2017-10-25T14:00:52.142Z,1015.07
2017-10-25T14:01:52.186Z,1015.07
2017-10-25T14:02:52.154Z,1015.15
2017-10-25T14:03:52.202Z,1015.12
2017-10-25T14:04:52.179Z,1015.14
2017-10-25T14:05:52.215Z,1015.15
2017-10-25T14:06:52.192Z,1015.11
2017-10-25T14:07:52.767Z,1015.12
2017-10-25T14:08:52.214Z,1015.11
2017-10-25T14:09:52.239Z,1015.14
2017-10-25T14:10:52.227Z,1015.10
2017-10-25T14:11:52.234Z,1015.12
2017-10-25T14:12:52.244Z,1015.15
2017-10-25T14:13:52.370Z,1015.13
2017-10-25T14:14:52.291Z,1015.18
2017-10-25T14:15:52.382Z,1015.19
2017-10-25T14:16:52.289Z,1015.27
2017-10-25T14:17:52.397Z,1015.28
2017-10-25T14:18:52.307Z,1015.22
2017-10-25T14:19:53.331Z,1015.23
2017-10-25T14:20:52.329Z,1015.28
2017-10-25T14:21:53.348Z,1015.26
2017-10-25T14:22:52.339Z,1015.29
2017-10-25T14:23:52.346Z,1015.25
2017-10-25T14:24:52.355Z,1015.25
2017-10-25T14:25:52.362Z,1015.25
2017-10-25T14:26:52.371Z,1015.27
2017-10-25T14:27:52.382Z,1015.25
2017-10-25T14:28:52.472Z,1015.28
2017-10-25T14:29:52.399Z,1015.27
2017-10-25T14:30:52.486Z,1015.28
2017-10-25T14:31:52.416Z,1015.21
2017-10-25T14:32:52.497Z,1015.22
2017-10-25T14:33:52.435Z,1015.23
2017-10-25T14:34:54.559Z,1015.24
2017-10-25T14:35:52.452Z,1015.28
2017-10-25T14:36:52.464Z,1015.31
2017-10-25T14:37:52.532Z,1015.32
2017-10-25T14:38:52.479Z,1015.23
2017-10-25T14:39:52.494Z,1015.29
2017-10-25T14:40:52.763Z,1015.30
2017-10-25T14:41:52.558Z,1015.37
2017-10-25T14:42:52.517Z,1015.30
2017-10-25T14:43:52.568Z,1015.23
2017-10-25T14:44:52.539Z,1015.31
2017-10-25T14:45:52.592Z,1015.37
2017-10-25T14:46:52.554Z,1015.41
2017-10-25T14:47:52.601Z,1015.48
2017-10-25T14:48:52.586Z,1015.48
2017-10-25T14:49:52.615Z,1015.50
2017-10-25T14:50:52.591Z,1015.43
2017-10-25T14:51:52.630Z,1015.51
2017-10-25T14:52:52.620Z,1015.49
2017-10-25T14:53:52.663Z,1015.53
2017-10-25T14:54:52.632Z,1015.56
2017-10-25T14:55:52.659Z,1015.51
2017-10-25T14:56:52.651Z,1015.56
2017-10-25T14:57:52.665Z,1015.53
2017-10-25T14:58:52.778Z,1015.57
2017-10-25T14:59:52.689Z,1015.56
2017-10-25T15:00:52.797Z,1015.54
2017-10-25T15:01:52.719Z,1015.56
2017-10-25T15:02:52.808Z,1015.50
2017-10-25T15:03:52.711Z,1015.59
2017-10-25T15:04:52.823Z,1015.56
2017-10-25T15:05:52.727Z,1015.59
2017-10-25T15:06:52.746Z,1015.61
2017-10-25T15:07:52.743Z,1015.65
2017-10-25T15:08:52.845Z,1015.62
2017-10-25T15:09:52.764Z,1015.63
2017-10-25T15:10:52.773Z,1015.62
2017-10-25T15:11:52.786Z,1015.62
2017-10-25T15:12:52.873Z,1015.64
2017-10-25T15:13:52.803Z,1015.67
2017-10-25T15:14:52.886Z,1015.72
2017-10-25T15:15:52.827Z,1015.67
2017-10-25T15:16:52.899Z,1015.77
2017-10-25T15:17:52.835Z,1015.69
2017-10-25T15:18:52.914Z,1015.71
2017-10-25T15:19:52.857Z,1015.69
2017-10-25T15:20:52.926Z,1015.73
2017-10-25T15:21:52.882Z,1015.68
2017-10-25T15:22:52.938Z,1015.70
2017-10-25T15:23:52.903Z,1015.68
2017-10-25T15:24:52.953Z,1015.67
2017-10-25T15:25:52.911Z,1015.74
2017-10-25T15:26:52.967Z,1015.70
2017-10-25T15:27:52.928Z,1015.69
2017-10-25T15:28:52.939Z,1015.65
2017-10-25T15:30:24.262Z,1015.66
2017-10-25T15:31:24.213Z,1015.63
2017-10-25T15:32:24.230Z,1015.65
2017-10-25T15:33:24.231Z,1015.72
2017-10-25T15:34:24.357Z,1015.73
2017-10-25T15:35:24.244Z,1015.73
2017-10-25T15:36:24.362Z,1015.77
2017-10-25T15:37:24.266Z,1015.77
2017-10-25T15:38:24.271Z,1015.74
2017-10-25T15:39:24.280Z,1015.77
2017-10-25T15:40:24.402Z,1015.80
2017-10-25T15:41:24.303Z,1015.82
2017-10-25T15:42:24.403Z,1015.82
2017-10-25T15:43:24.325Z,1015.84
2017-10-25T15:44:24.330Z,1015.87
2017-10-25T15:45:25.444Z,1015.81
2017-10-25T15:46:24.353Z,1015.84
2017-10-25T15:47:24.433Z,1015.77
2017-10-25T15:48:24.361Z,1015.80
2017-10-25T15:49:24.449Z,1015.77
2017-10-25T15:50:24.378Z,1015.82
2017-10-25T15:51:24.395Z,1015.81
2017-10-25T15:52:24.399Z,1015.83
2017-10-25T15:53:24.476Z,1015.87
2017-10-25T15:54:24.416Z,1015.80
2017-10-25T15:55:24.490Z,1015.83
2017-10-25T15:56:24.432Z,1015.80
2017-10-25T15:57:24.504Z,1015.79
2017-10-25T15:58:24.454Z,1015.86
2017-10-25T15:59:24.515Z,1015.87
2017-10-25T16:00:24.476Z,1015.86
2017-10-25T16:01:24.535Z,1015.84
2017-10-25T16:02:24.493Z,1015.84
2017-10-25T16:03:24.543Z,1015.89
2017-10-25T16:04:24.506Z,1015.88
2017-10-25T16:05:24.559Z,1015.91
2017-10-25T16:06:24.526Z,1015.91
2017-10-25T16:07:24.577Z,1015.86
2017-10-25T16:08:24.543Z,1015.93
2017-10-25T16:09:24.593Z,1015.91
2017-10-25T16:10:24.563Z,1015.97
2017-10-25T16:11:24.602Z,1016.00
2017-10-25T16:12:24.583Z,1016.03
2017-10-25T16:13:24.620Z,1016.00
2017-10-25T16:14:24.597Z,1015.98
2017-10-25T16:15:24.632Z,1016.02
2017-10-25T16:16:24.618Z,1016.00
2017-10-25T16:17:24.645Z,1016.05
2017-10-25T16:18:24.635Z,1016.06
2017-10-25T16:19:24.763Z,1016.05
2017-10-25T16:20:24.659Z,1016.08
2017-10-25T16:21:24.676Z,1016.09
2017-10-25T16:22:24.678Z,1016.09
2017-10-25T16:23:24.676Z,1016.11
2017-10-25T16:24:24.692Z,1016.13
2017-10-25T16:25:24.700Z,1016.14
2017-10-25T16:26:24.809Z,1016.15
2017-10-25T16:27:24.718Z,1016.18
2017-10-25T16:28:24.827Z,1016.23
2017-10-25T16:29:24.736Z,1016.24
2017-10-25T16:30:24.846Z,1016.26
2017-10-25T16:31:24.755Z,1016.25
2017-10-25T16:32:25.873Z,1016.27
2017-10-25T16:33:24.776Z,1016.23
2017-10-25T16:34:24.871Z,1016.20
2017-10-25T16:35:24.795Z,1016.23
2017-10-25T16:36:24.948Z,1016.25
2017-10-25T16:37:24.811Z,1016.31
2017-10-25T16:38:24.888Z,1016.31
2017-10-25T16:39:24.831Z,1016.27
2017-10-25T16:40:24.838Z,1016.30
2017-10-25T16:41:24.907Z,1016.29
2017-10-25T16:42:24.854Z,1016.31
2017-10-25T16:43:24.919Z,1016.28
2017-10-25T16:44:25.452Z,1016.30
2017-10-25T16:45:24.934Z,1016.26
2017-10-25T16:46:24.901Z,1016.29
2017-10-25T16:47:24.948Z,1016.30
2017-10-25T16:48:24.914Z,1016.39
2017-10-25T16:49:24.966Z,1016.34
2017-10-25T16:50:24.924Z,1016.39
2017-10-25T16:51:24.978Z,1016.36
2017-10-25T16:52:24.947Z,1016.40
2017-10-25T16:53:24.996Z,1016.41
2017-10-25T16:54:24.968Z,1016.43
2017-10-25T16:55:25.004Z,1016.38
2017-10-25T16:56:24.983Z,1016.40
2017-10-25T16:57:24.994Z,1016.39
2017-10-25T16:58:25.024Z,1016.47
2017-10-25T16:59:25.014Z,1016.47
2017-10-25T17:00:25.039Z,1016.43
2017-10-25T17:01:25.032Z,1016.53
2017-10-25T17:02:25.158Z,1016.52
2017-10-25T17:03:25.056Z,1016.51
2017-10-25T17:04:25.164Z,1016.59
2017-10-25T17:05:25.073Z,1016.56
2017-10-25T17:06:25.178Z,1016.53
2017-10-25T17:07:25.085Z,1016.56
2017-10-25T17:08:25.193Z,1016.50
2017-10-25T17:09:25.104Z,1016.45
2017-10-25T17:10:25.205Z,1016.53
2017-10-25T17:11:25.120Z,1016.54
2017-10-25T17:12:25.221Z,1016.51
2017-10-25T17:13:25.141Z,1016.55
2017-10-25T17:14:25.361Z,1016.48
2017-10-25T17:15:25.165Z,1016.50
2017-10-25T17:16:25.247Z,1016.46
2017-10-25T17:17:25.179Z,1016.51
2017-10-25T17:18:25.265Z,1016.52
2017-10-25T17:19:25.204Z,1016.57
2017-10-25T17:20:25.278Z,1016.55
2017-10-25T17:21:25.215Z,1016.56
2017-10-25T17:22:25.291Z,1016.54
2017-10-25T17:23:25.233Z,1016.59
2017-10-25T17:24:25.338Z,1016.58
2017-10-25T17:25:25.252Z,1016.64
2017-10-25T17:26:25.316Z,1016.62
2017-10-25T17:27:25.275Z,1016.62
2017-10-25T17:28:25.327Z,1016.65
2017-10-25T17:29:25.293Z,1016.71
2017-10-25T17:30:25.847Z,1016.71
2017-10-25T17:31:25.307Z,1016.68
2017-10-25T17:32:25.428Z,1016.71
2017-10-25T17:33:25.322Z,1016.75
2017-10-25T17:34:25.539Z,1016.77
2017-10-25T17:35:25.345Z,1016.79
2017-10-25T17:36:25.355Z,1016.81
2017-10-25T17:37:25.371Z,1016.89
2017-10-25T17:38:25.572Z,1016.90
2017-10-25T17:39:25.382Z,1016.89
2017-10-25T17:40:25.588Z,1016.87
2017-10-25T17:41:25.424Z,1016.82
2017-10-25T17:42:25.607Z,1016.84
2017-10-25T17:43:25.416Z,1016.78
2017-10-25T17:44:25.618Z,1016.85
2017-10-25T17:45:25.436Z,1016.84
2017-10-25T17:46:25.624Z,1016.88
2017-10-25T17:47:25.456Z,1016.92
2017-10-25T17:48:25.642Z,1016.92
2017-10-25T17:49:25.472Z,1016.96
2017-10-25T17:50:26.674Z,1016.99
2017-10-25T17:51:25.491Z,1016.96
2017-10-25T17:52:25.501Z,1017.06
2017-10-25T17:53:25.683Z,1017.08
2017-10-25T17:54:25.523Z,1017.01
2017-10-25T17:55:25.580Z,1017.04
2017-10-25T17:56:25.546Z,1017.01
2017-10-25T17:57:25.707Z,1016.96
2017-10-25T17:58:25.573Z,1016.97
2017-10-25T17:59:25.712Z,1016.98
2017-10-25T18:00:25.572Z,1016.99
2017-10-25T18:01:26.766Z,1016.99
2017-10-25T18:02:25.611Z,1017.02
2017-10-25T18:03:25.743Z,1017.02
2017-10-25T18:04:25.614Z,1017.06
2017-10-25T18:05:25.757Z,1017.01
2017-10-25T18:06:25.627Z,1017.00
2017-10-25T18:07:25.776Z,1016.94
2017-10-25T18:08:25.648Z,1016.96
2017-10-25T18:09:25.784Z,1016.96
2017-10-25T18:10:25.663Z,1017.02
2017-10-25T18:11:25.805Z,1017.06
2017-10-25T18:12:25.679Z,1017.02
2017-10-25T18:13:25.914Z,1017.02
2017-10-25T18:14:25.704Z,1017.05
2017-10-25T18:15:25.927Z,1017.04
2017-10-25T18:16:25.731Z,1017.09
2017-10-25T18:17:25.943Z,1017.15
2017-10-25T18:18:25.743Z,1017.14
2017-10-25T18:19:25.750Z,1017.11
2017-10-25T18:20:25.757Z,1017.09
2017-10-25T18:21:25.965Z,1017.06
2017-10-25T18:22:25.780Z,1017.05
2017-10-25T18:23:25.786Z,1017.06
2017-10-25T18:24:25.799Z,1017.05
2017-10-25T18:25:25.807Z,1017.05
2017-10-25T18:26:25.815Z,1017.02
2017-10-25T18:27:25.824Z,1017.00
2017-10-25T18:28:25.834Z,1016.99
2017-10-25T18:29:25.844Z,1017.07
2017-10-25T18:30:25.853Z,1017.13
2017-10-25T18:31:25.862Z,1017.09
2017-10-25T18:32:25.871Z,1017.11
2017-10-25T18:33:25.877Z,1017.11
2017-10-25T18:34:25.886Z,1017.14
2017-10-25T18:35:25.900Z,1017.11
2017-10-25T18:36:25.906Z,1017.15
2017-10-25T18:37:25.919Z,1017.16
2017-10-25T18:38:25.928Z,1017.18
2017-10-25T18:39:25.934Z,1017.17
2017-10-25T18:40:25.949Z,1017.18
2017-10-25T18:41:25.952Z,1017.16
2017-10-25T18:42:25.962Z,1017.21
2017-10-25T18:43:25.974Z,1017.25
2017-10-25T18:44:25.978Z,1017.27
2017-10-25T18:45:25.987Z,1017.28
2017-10-25T18:46:26.034Z,1017.34
2017-10-25T18:47:26.002Z,1017.28
2017-10-25T18:48:26.048Z,1017.24
2017-10-25T18:49:26.027Z,1017.28
2017-10-25T18:50:26.060Z,1017.29
2017-10-25T18:51:26.050Z,1017.30
2017-10-25T18:52:26.049Z,1017.35
2017-10-25T18:53:26.063Z,1017.32
2017-10-25T18:54:26.099Z,1017.32
2017-10-25T18:55:26.083Z,1017.38
2017-10-25T18:56:26.090Z,1017.38
2017-10-25T18:57:26.108Z,1017.41
2017-10-25T18:58:26.108Z,1017.37
2017-10-25T18:59:26.120Z,1017.46
2017-10-25T19:00:26.235Z,1017.42
2017-10-25T19:01:26.135Z,1017.38
2017-10-25T19:02:26.147Z,1017.35
2017-10-25T19:03:26.155Z,1017.36
2017-10-25T19:04:26.165Z,1017.36
2017-10-25T19:05:26.165Z,1017.34
2017-10-25T19:06:26.179Z,1017.34
2017-10-25T19:07:26.187Z,1017.31
2017-10-25T19:08:26.194Z,1017.35
2017-10-25T19:09:26.206Z,1017.33
2017-10-25T19:10:26.227Z,1017.34
2017-10-25T19:11:26.225Z,1017.39
2017-10-25T19:12:26.239Z,1017.40
2017-10-25T19:13:26.248Z,1017.44
2017-10-25T19:14:26.329Z,1017.44
2017-10-25T19:15:26.275Z,1017.54
2017-10-25T19:16:26.339Z,1017.51
2017-10-25T19:17:26.300Z,1017.55
2017-10-25T19:18:26.362Z,1017.58
2017-10-25T19:19:26.301Z,1017.57
2017-10-25T19:20:26.314Z,1017.63
2017-10-25T19:21:26.319Z,1017.51
2017-10-25T19:22:26.378Z,1017.47
2017-10-25T19:23:26.337Z,1017.47
2017-10-25T19:24:26.391Z,1017.45
2017-10-25T19:25:26.355Z,1017.51
2017-10-25T19:26:26.363Z,1017.49
2017-10-25T19:27:26.364Z,1017.57
2017-10-25T19:28:26.381Z,1017.57
2017-10-25T19:29:26.435Z,1017.57
2017-10-25T19:30:26.407Z,1017.53
2017-10-25T19:31:26.416Z,1017.55
2017-10-25T19:32:26.548Z,1017.54
2017-10-25T19:33:26.426Z,1017.57
2017-10-25T19:34:26.432Z,1017.62
2017-10-25T19:35:26.570Z,1017.65
2017-10-25T19:36:27.143Z,1017.65
2017-10-25T19:37:26.583Z,1017.67
2017-10-25T19:38:27.093Z,1017.64
2017-10-25T19:39:26.839Z,1017.67
2017-10-25T19:40:26.488Z,1017.66
2017-10-25T19:41:26.612Z,1017.66
2017-10-25T19:42:26.510Z,1017.71
2017-10-25T19:43:26.622Z,1017.72
2017-10-25T19:44:26.531Z,1017.76
2017-10-25T19:45:26.635Z,1017.67
2017-10-25T19:46:26.543Z,1017.71
2017-10-25T19:47:26.651Z,1017.69
2017-10-25T19:48:26.573Z,1017.65
2017-10-25T19:49:26.577Z,1017.65
2017-10-25T19:50:26.578Z,1017.67
2017-10-25T19:51:26.678Z,1017.64
2017-10-25T19:52:26.606Z,1017.71
2017-10-25T19:53:26.699Z,1017.72
2017-10-25T19:54:26.621Z,1017.69
2017-10-25T19:55:26.621Z,1017.64
2017-10-25T19:56:26.670Z,1017.70
2017-10-25T19:57:26.648Z,1017.71
2017-10-25T19:58:26.655Z,1017.71
2017-10-25T19:59:26.736Z,1017.73
2017-10-25T20:00:26.672Z,1017.76
2017-10-25T20:01:26.747Z,1017.69
2017-10-25T20:02:26.694Z,1017.67
2017-10-25T20:03:26.698Z,1017.62
2017-10-25T20:04:26.703Z,1017.59
2017-10-25T20:05:26.771Z,1017.56
2017-10-25T20:06:26.727Z,1017.56
2017-10-25T20:07:27.806Z,1017.57
2017-10-25T20:08:26.749Z,1017.60
2017-10-25T20:09:26.767Z,1017.69
2017-10-25T20:10:26.764Z,1017.70
2017-10-25T20:11:26.919Z,1017.68
2017-10-25T20:12:26.780Z,1017.71
2017-10-25T20:13:26.932Z,1017.64
2017-10-25T20:14:26.800Z,1017.67
2017-10-25T20:15:26.943Z,1017.60
2017-10-25T20:16:26.817Z,1017.60
2017-10-25T20:17:26.968Z,1017.61
2017-10-25T20:18:26.833Z,1017.64
2017-10-25T20:19:26.977Z,1017.79
2017-10-25T20:20:26.853Z,1017.79
2017-10-25T20:21:26.860Z,1017.81
2017-10-25T20:22:26.872Z,1017.76
2017-10-25T20:23:26.881Z,1017.79
2017-10-25T20:24:26.906Z,1017.83
2017-10-25T20:25:27.016Z,1017.85
2017-10-25T20:26:26.905Z,1017.85
2017-10-25T20:27:26.914Z,1017.86
2017-10-25T20:28:26.939Z,1017.94
2017-10-25T20:29:27.048Z,1017.95
2017-10-25T20:30:26.953Z,1017.93
2017-10-25T20:31:27.056Z,1017.98
2017-10-25T20:32:26.967Z,1018.02
2017-10-25T20:33:27.068Z,1018.04
2017-10-25T20:34:26.980Z,1018.00
2017-10-25T20:35:26.985Z,1018.03
2017-10-25T20:36:27.089Z,1017.94
2017-10-25T20:37:27.004Z,1017.88
2017-10-25T20:38:27.103Z,1017.93
2017-10-25T20:39:27.024Z,1017.89
2017-10-25T20:40:27.115Z,1017.92
2017-10-25T20:41:27.047Z,1017.93
2017-10-25T20:42:27.128Z,1017.95
2017-10-25T20:43:27.063Z,1017.91
2017-10-25T20:44:27.141Z,1018.00
2017-10-25T20:45:27.080Z,1018.04
2017-10-25T20:46:27.154Z,1018.10
2017-10-25T20:47:27.101Z,1018.09
2017-10-25T20:48:27.191Z,1018.08
2017-10-25T20:49:27.111Z,1018.04
2017-10-25T20:50:27.129Z,1018.10
2017-10-25T20:51:27.141Z,1018.07
2017-10-25T20:52:27.303Z,1018.13
2017-10-25T20:53:27.154Z,1018.12
2017-10-25T20:54:27.311Z,1018.10
2017-10-25T20:55:27.178Z,1018.05
2017-10-25T20:56:27.327Z,1018.04
2017-10-25T20:57:27.182Z,1018.06
2017-10-25T20:58:27.344Z,1018.04
2017-10-25T20:59:27.202Z,1018.11
2017-10-25T21:00:27.213Z,1018.15
2017-10-25T21:01:27.226Z,1018.17
2017-10-25T21:02:27.232Z,1018.21
2017-10-25T21:03:27.237Z,1018.27
2017-10-25T21:04:27.250Z,1018.21
2017-10-25T21:05:27.254Z,1018.21
2017-10-25T21:06:27.267Z,1018.27
2017-10-25T21:07:27.401Z,1018.37
2017-10-25T21:08:27.284Z,1018.38
2017-10-25T21:09:27.413Z,1018.40
2017-10-25T21:10:27.301Z,1018.36
2017-10-25T21:11:27.314Z,1018.31
2017-10-25T21:12:27.319Z,1018.39
2017-10-25T21:13:27.439Z,1018.40
2017-10-25T21:14:27.333Z,1018.45
2017-10-25T21:15:27.487Z,1018.50
2017-10-25T21:16:27.358Z,1018.47
2017-10-25T21:17:27.365Z,1018.43
2017-10-25T21:18:27.371Z,1018.42
2017-10-25T21:19:27.378Z,1018.41
2017-10-25T21:20:27.384Z,1018.41
2017-10-25T21:21:27.398Z,1018.44
2017-10-25T21:22:27.410Z,1018.36
2017-10-25T21:23:27.533Z,1018.33
2017-10-25T21:24:27.490Z,1018.33
2017-10-25T21:25:27.623Z,1018.30
2017-10-25T21:26:27.443Z,1018.29
2017-10-25T21:27:27.536Z,1018.34
2017-10-25T21:28:27.484Z,1018.38
2017-10-25T21:29:27.651Z,1018.39
2017-10-25T21:30:27.485Z,1018.39
2017-10-25T21:31:27.668Z,1018.37
2017-10-25T21:32:27.496Z,1018.35
2017-10-25T21:33:27.680Z,1018.27
2017-10-25T21:34:27.510Z,1018.25
2017-10-25T21:35:27.692Z,1018.29
2017-10-25T21:36:27.535Z,1018.25
2017-10-25T21:37:27.709Z,1018.27
2017-10-25T21:38:27.555Z,1018.25
2017-10-25T21:39:27.721Z,1018.27
2017-10-25T21:40:27.566Z,1018.24
2017-10-25T21:41:27.737Z,1018.22
2017-10-25T21:42:27.592Z,1018.28
2017-10-25T21:43:27.749Z,1018.36
2017-10-25T21:44:27.601Z,1018.34
2017-10-25T21:45:27.761Z,1018.33
2017-10-25T21:46:27.624Z,1018.27
2017-10-25T21:47:27.772Z,1018.31
2017-10-25T21:48:27.641Z,1018.31
2017-10-25T21:49:27.788Z,1018.29
2017-10-25T21:50:27.663Z,1018.32
2017-10-25T21:51:27.798Z,1018.37
2017-10-25T21:52:27.685Z,1018.33
2017-10-25T21:53:27.814Z,1018.35
2017-10-25T21:54:27.764Z,1018.40
2017-10-25T21:55:27.829Z,1018.43
2017-10-25T21:56:27.712Z,1018.44
2017-10-25T21:57:27.840Z,1018.45
2017-10-25T21:58:27.756Z,1018.43
2017-10-25T21:59:27.856Z,1018.43
2017-10-25T22:00:27.746Z,1018.47
2017-10-25T22:01:27.871Z,1018.43
2017-10-25T22:02:27.764Z,1018.43
2017-10-25T22:03:27.877Z,1018.43
2017-10-25T22:04:27.789Z,1018.40
2017-10-25T22:05:27.893Z,1018.43
2017-10-25T22:06:27.801Z,1018.35
2017-10-25T22:07:27.909Z,1018.29
2017-10-25T22:08:27.826Z,1018.34
2017-10-25T22:09:27.922Z,1018.34
2017-10-25T22:10:27.838Z,1018.33
2017-10-25T22:11:28.044Z,1018.33
2017-10-25T22:12:27.861Z,1018.41
2017-10-25T22:13:28.058Z,1018.39
2017-10-25T22:14:27.872Z,1018.40
2017-10-25T22:15:28.066Z,1018.47
2017-10-25T22:16:27.894Z,1018.49
2017-10-25T22:17:28.079Z,1018.49
2017-10-25T22:18:27.908Z,1018.51
2017-10-25T22:19:28.092Z,1018.51
2017-10-25T22:20:27.936Z,1018.53
2017-10-25T22:21:28.114Z,1018.49
2017-10-25T22:22:27.943Z,1018.52
2017-10-25T22:23:28.118Z,1018.51
2017-10-25T22:24:27.960Z,1018.51
2017-10-25T22:25:28.133Z,1018.51
2017-10-25T22:26:27.977Z,1018.56
2017-10-25T22:27:28.147Z,1018.52
2017-10-25T22:28:28.002Z,1018.53
2017-10-25T22:29:28.169Z,1018.61
2017-10-25T22:30:28.017Z,1018.61
2017-10-25T22:31:28.117Z,1018.60
2017-10-25T22:32:28.029Z,1018.63
2017-10-25T22:33:28.133Z,1018.60
2017-10-25T22:34:28.056Z,1018.60
2017-10-25T22:35:28.148Z,1018.58
2017-10-25T22:36:28.077Z,1018.54
2017-10-25T22:37:28.165Z,1018.51
2017-10-25T22:38:28.086Z,1018.56
2017-10-25T22:39:28.174Z,1018.55
2017-10-25T22:40:28.103Z,1018.55
2017-10-25T22:41:28.187Z,1018.62
2017-10-25T22:42:28.122Z,1018.64
2017-10-25T22:43:28.203Z,1018.58
2017-10-25T22:44:28.142Z,1018.54
2017-10-25T22:45:28.220Z,1018.54
2017-10-25T22:46:28.158Z,1018.51
2017-10-25T22:47:28.228Z,1018.55
2017-10-25T22:48:28.172Z,1018.49
2017-10-25T22:49:28.242Z,1018.50
2017-10-25T22:50:28.187Z,1018.51
2017-10-25T22:51:28.250Z,1018.52
2017-10-25T22:52:28.209Z,1018.50
2017-10-25T22:53:28.270Z,1018.50
2017-10-25T22:54:28.234Z,1018.45
2017-10-25T22:55:28.387Z,1018.47
2017-10-25T22:56:28.241Z,1018.44
2017-10-25T22:57:28.400Z,1018.43
2017-10-25T22:58:28.258Z,1018.45
2017-10-25T22:59:28.417Z,1018.46
2017-10-25T23:00:28.281Z,1018.50
2017-10-25T23:01:28.425Z,1018.53
2017-10-25T23:02:28.295Z,1018.56
2017-10-25T23:03:28.438Z,1018.56
2017-10-25T23:04:28.314Z,1018.52
2017-10-25T23:05:28.451Z,1018.52
2017-10-25T23:06:28.334Z,1018.53
2017-10-25T23:07:28.466Z,1018.57
2017-10-25T23:08:28.352Z,1018.55
2017-10-25T23:09:28.477Z,1018.60
2017-10-25T23:10:28.366Z,1018.56
2017-10-25T23:11:28.495Z,1018.59
2017-10-25T23:12:28.384Z,1018.60
2017-10-25T23:13:28.513Z,1018.60
2017-10-25T23:14:28.402Z,1018.62
2017-10-25T23:15:28.520Z,1018.55
2017-10-25T23:16:28.433Z,1018.63
2017-10-25T23:17:28.535Z,1018.65